KMLU

Monroe Regional Airport

Monroe, Louisiana, USA
KMLU 160543Z 1606/1706 00000KT P6SM SCT025 BKN035 TEMPO 1606/1610 BKN025 OVC035 FM161000 00000KT 5SM BR OVC025 FM161400 36003KT P6SM SCT030 SCT300 FM162100 VRB04KT P6SM BKN250 FM170000 00000KT P6SM SCT250
Issued Valid From Valid To
Dec-16 @ 05:43 UTC
(21 minutes ago)
Dec-16 @ 06:00 UTC
(4 minutes ago)
Dec-17 @ 06:00 UTC
(in 24 hours)
Dec-16 @ 06:00 to Dec-16 @ 10:00
KMLU 160543Z 1606/1706 00000KT P6SM SCT025 BKN035
Visibility Clouds
Greater than 6 miles
  • Scattered at 2,500' AGL
  • Broken at 3,500' AGL
Temporary Dec-16 @ 06:00 to Dec-16 @ 10:00
TEMPO 1606/1610 BKN025 OVC035
Clouds
  • Broken at 2,500' AGL
  • Overcast at 3,500' AGL
From Dec-16 @ 10:00 to Dec-16 @ 14:00
FM161000 00000KT 5SM BR OVC025
Visibility Clouds Conditions
5 miles
  • Overcast at 2,500' AGL
  • Mist
From Dec-16 @ 14:00 to Dec-16 @ 21:00
FM161400 36003KT P6SM SCT030 SCT300
Wind Visibility Clouds
360° at 3 knots Greater than 6 miles
  • Scattered at 3,000' AGL
  • Scattered at 30,000' AGL
From Dec-16 @ 21:00 to Dec-17 @ 00:00
FM162100 VRB04KT P6SM BKN250
Wind Visibility Clouds
Variable at 4 knots Greater than 6 miles
  • Broken at 25,000' AGL
From Dec-17 @ 00:00 to Dec-17 @ 06:00
FM170000 00000KT P6SM SCT250
Visibility Clouds
Greater than 6 miles
  • Scattered at 25,000' AGL
KMLU 160543Z 1606/1706 00000KT P6SM SCT025 BKN035 TEMPO 1606/1610 BKN025 OVC035 FM161000 00000KT 5SM BR OVC025 FM161400 36003KT P6SM SCT030 SCT300 FM162100 VRB04KT P6SM BKN250 FM170000 00000KT P6SM SCT250
Issued Dec-16 @ 05:43 UTC
(21 minutes ago)
Valid From Dec-16 @ 06:00 UTC
(4 minutes ago)
Valid To Dec-17 @ 06:00 UTC
(in 24 hours)
Dec-16 @ 06:00 - Dec-16 @ 10:00
Clouds
  • Scattered at 2,500' AGL
  • Broken at 3,500' AGL
Temporary Dec-16 @ 06:00 - Dec-16 @ 10:00
Clouds
  • Broken at 2,500' AGL
  • Overcast at 3,500' AGL
From Dec-16 @ 10:00 - Dec-16 @ 14:00
Clouds
  • Overcast at 2,500' AGL
Conditions
  • Mist
From Dec-16 @ 14:00 - Dec-16 @ 21:00
Wind Visibility
360° at 3 knots Greater than 6 miles
Clouds
  • Scattered at 3,000' AGL
  • Scattered at 30,000' AGL
From Dec-16 @ 21:00 - Dec-17 @ 00:00
Wind Visibility
Variable at 4 knots Greater than 6 miles
Clouds
  • Broken at 25,000' AGL
From Dec-17 @ 00:00 - Dec-17 @ 06:00
Clouds
  • Scattered at 25,000' AGL